Terminal Aerodrome Forecast
Issued by NWS

Home | Current Version | Previous Version | Text Only | Print | Product List | Glossary On
Versions: 1 2 3 4 5 6 7 8 9 10 11 12 13 14 15 16 17 18 19 20 21 22
000
FTUS41 KRLX 031100
TAFCKB
TAF
KCKB 031121Z 0312/0412 VRB03KT P6SM OVC110
     FM031500 15007KT P6SM -SHRA OVC080
     FM031800 18008KT P6SM -SHRA OVC030
     FM040100 21010G17KT P6SM -SHRA OVC015
     FM040600 23009KT 2SM RA BR OVC008
     FM040900 28006KT 1SM +RA BR OVC008=

USA.gov is the U.S. government's official web portal to all federal, state and local government web resources and services.